Time;durP1;ratioP1;P1;durP2;ratioP2;P2;SDS_P1;SDS_P2;PMS_P1;PMS_P2;Temp;Humidity;BMP_temperature;BMP_pressure;BME280_temperature;BME280_humidity;BME280_pressure;Samples;Min_cycle;Max_cycle;Signal;HPM_P1;HPM_P2
2021/09/14 00:01:39;;;;;;;6.63;2.33;;;11.10;99.90;;;;;;5032770;28;20206;-79
2021/09/14 00:04:06;;;;;;;4.10;2.00;;;11.30;99.90;;;;;;5028049;28;20755;-80
2021/09/14 00:06:38;;;;;;;4.80;2.10;;;11.50;99.90;;;;;;5033709;28;20310;-79
2021/09/14 00:09:04;;;;;;;10.63;3.10;;;11.50;99.90;;;;;;5027093;28;20269;-79
2021/09/14 00:11:31;;;;;;;8.30;3.40;;;11.50;99.90;;;;;;5035628;28;20295;-79
2021/09/14 00:14:00;;;;;;;9.50;3.73;;;11.40;99.90;;;;;;5029998;28;20202;-80
2021/09/14 00:16:27;;;;;;;22.23;3.90;;;11.40;99.90;;;;;;5033858;28;20373;-79
2021/09/14 00:18:53;;;;;;;11.60;3.27;;;11.30;99.90;;;;;;5026916;28;20581;-79
2021/09/14 00:21:20;;;;;;;8.90;3.33;;;11.20;99.90;;;;;;5034852;28;20734;-80
2021/09/14 00:23:47;;;;;;;10.50;3.67;;;11.40;99.90;;;;;;5033891;28;20277;-79
2021/09/14 00:26:14;;;;;;;4.70;3.67;;;11.20;99.90;;;;;;5034504;28;20649;-79
2021/09/14 00:28:41;;;;;;;13.27;4.23;;;11.30;99.90;;;;;;5035971;28;20226;-79
2021/09/14 00:31:09;;;;;;;5.13;3.17;;;11.10;99.90;;;;;;5035318;28;20283;-79
2021/09/14 00:33:36;;;;;;;5.93;2.93;;;11.00;99.90;;;;;;5036164;28;20199;-80
2021/09/14 00:36:03;;;;;;;12.73;2.97;;;11.00;99.90;;;;;;5039246;28;20317;-80
2021/09/14 00:38:30;;;;;;;3.57;2.73;;;11.00;99.90;;;;;;5055564;28;20233;-79
2021/09/14 00:40:57;;;;;;;3.10;2.80;;;11.00;99.90;;;;;;5053438;28;20553;-79
2021/09/14 00:43:25;;;;;;;3.83;2.90;;;11.10;99.90;;;;;;5032840;28;20291;-79
2021/09/14 00:45:52;;;;;;;7.07;4.40;;;11.00;99.90;;;;;;5031778;28;20232;-79
2021/09/14 00:48:21;;;;;;;3.93;2.50;;;11.10;99.90;;;;;;5032274;28;20228;-80
2021/09/14 00:50:48;;;;;;;9.90;3.20;;;11.10;99.90;;;;;;5029609;28;20710;-79
2021/09/14 00:53:15;;;;;;;4.97;2.70;;;11.00;99.90;;;;;;5032346;28;20246;-79
2021/09/14 00:55:43;;;;;;;4.90;3.10;;;11.00;99.90;;;;;;5025380;28;20730;-79
2021/09/14 00:58:10;;;;;;;2.63;2.43;;;11.00;99.90;;;;;;5027407;28;20223;-79
2021/09/14 01:00:37;;;;;;;2.90;2.57;;;11.00;99.90;;;;;;5032579;28;20243;-79
2021/09/14 01:03:04;;;;;;;4.97;3.67;;;11.10;99.90;;;;;;5030861;28;20291;-79
2021/09/14 01:05:32;;;;;;;6.20;4.53;;;11.10;99.90;;;;;;5038526;28;20306;-79
2021/09/14 01:08:00;;;;;;;27.60;5.23;;;11.00;99.90;;;;;;5038900;28;20211;-79
2021/09/14 01:10:27;;;;;;;11.53;4.93;;;11.10;99.90;;;;;;5027821;28;20286;-79
2021/09/14 01:12:54;;;;;;;13.00;5.37;;;11.20;99.90;;;;;;5029488;28;20263;-79
2021/09/14 01:15:21;;;;;;;22.40;3.70;;;11.20;99.90;;;;;;5029814;28;20295;-79
2021/09/14 01:17:47;;;;;;;27.80;3.60;;;10.90;99.90;;;;;;5031305;28;20206;-79
2021/09/14 01:20:14;;;;;;;9.47;3.93;;;10.70;99.90;;;;;;5026197;28;20200;-79
2021/09/14 01:22:42;;;;;;;4.07;3.40;;;10.80;99.90;;;;;;5028175;28;20652;-79
2021/09/14 01:25:17;;;;;;;4.90;3.70;;;11.00;99.90;;;;;;5022423;28;20201;-80
2021/09/14 01:27:44;;;;;;;8.27;4.30;;;11.10;99.90;;;;;;5030244;28;20301;-79
2021/09/14 01:30:13;;;;;;;11.50;4.00;;;11.10;99.90;;;;;;5027627;28;20230;-79
2021/09/14 01:32:42;;;;;;;46.10;5.80;;;11.00;99.90;;;;;;5030005;28;20199;-79
2021/09/14 01:35:11;;;;;;;17.90;4.53;;;10.80;99.90;;;;;;5020005;28;20215;-79
2021/09/14 01:37:38;;;;;;;16.10;3.17;;;10.70;99.90;;;;;;5032929;28;20203;-79
2021/09/14 01:40:07;;;;;;;11.60;3.67;;;10.80;99.90;;;;;;5034201;28;20196;-80
2021/09/14 01:42:34;;;;;;;20.27;3.20;;;10.70;99.90;;;;;;5029631;28;20695;-79
2021/09/14 01:45:01;;;;;;;15.90;3.10;;;10.60;99.90;;;;;;5032506;28;20204;-79
2021/09/14 01:47:28;;;;;;;15.20;3.20;;;10.70;99.90;;;;;;5026579;28;20219;-79
2021/09/14 01:49:55;;;;;;;16.00;2.90;;;10.60;99.90;;;;;;5031860;28;20219;-79
2021/09/14 01:52:22;;;;;;;8.90;3.27;;;10.40;99.90;;;;;;5030376;28;20204;-79
2021/09/14 01:54:50;;;;;;;15.30;3.77;;;10.60;99.90;;;;;;5030978;28;20658;-79
2021/09/14 01:57:21;;;;;;;12.87;3.60;;;10.50;99.90;;;;;;5026778;28;20220;-79
2021/09/14 01:59:51;;;;;;;14.70;3.70;;;10.50;99.90;;;;;;5028912;28;20257;-79
2021/09/14 02:02:24;;;;;;;11.33;3.60;;;10.60;99.90;;;;;;5030822;28;20613;-79
2021/09/14 02:04:55;;;;;;;5.77;2.93;;;10.50;99.90;;;;;;5066204;22;20283;-81
2021/09/14 02:24:07;;;;;;;13.33;2.60;;;10.50;99.90;;;;;;5053830;28;20256;-80
2021/09/14 02:40:30;;;;;;;7.33;2.33;;;10.40;99.90;;;;;;5051824;28;20197;-80
2021/09/14 02:58:37;;;;;;;12.10;3.73;;;10.30;99.90;;;;;;5051808;28;20226;-81
2021/09/14 02:59:37;;;;;;;27.07;3.93;;;10.40;99.90;;;;;;5052171;28;20206;-81
2021/09/14 03:02:06;;;;;;;23.77;4.70;;;10.20;99.90;;;;;;5050998;28;20289;-81
2021/09/14 03:04:33;;;;;;;24.10;5.50;;;10.10;99.90;;;;;;5051436;28;20294;-81
2021/09/14 03:07:00;;;;;;;35.83;4.90;;;10.10;99.90;;;;;;5050586;28;20269;-80
2021/09/14 03:09:27;;;;;;;17.27;4.10;;;10.10;99.90;;;;;;5035229;28;20715;-81
2021/09/14 03:11:54;;;;;;;21.97;4.17;;;10.00;99.90;;;;;;5037350;28;20568;-80
2021/09/14 03:14:21;;;;;;;10.27;3.03;;;10.10;99.90;;;;;;5041003;28;20664;-81
2021/09/14 03:16:47;;;;;;;16.67;3.93;;;10.10;99.90;;;;;;5043482;28;20322;-81
2021/09/14 03:19:16;;;;;;;10.70;2.93;;;10.20;99.90;;;;;;5071893;28;20646;-80
2021/09/14 03:21:42;;;;;;;9.10;3.10;;;10.20;99.90;;;;;;5060816;28;20298;-80
2021/09/14 03:24:09;;;;;;;4.70;2.83;;;10.20;99.90;;;;;;5052030;28;20306;-80
2021/09/14 03:26:36;;;;;;;3.47;2.20;;;10.00;99.90;;;;;;5051357;28;20306;-80
2021/09/14 03:29:03;;;;;;;3.80;2.33;;;10.10;99.90;;;;;;5052223;28;20309;-80
2021/09/14 03:31:30;;;;;;;5.27;3.20;;;10.10;99.90;;;;;;5056103;28;20213;-80
2021/09/14 03:33:57;;;;;;;3.73;2.47;;;10.10;99.90;;;;;;5056019;28;20683;-79
2021/09/14 03:36:25;;;;;;;3.33;2.20;;;10.10;99.90;;;;;;5054170;28;20604;-80
2021/09/14 03:38:52;;;;;;;4.87;2.40;;;10.10;99.90;;;;;;5049098;28;20203;-80
2021/09/14 03:41:19;;;;;;;2.93;2.20;;;10.00;99.90;;;;;;5054750;28;20658;-81
2021/09/14 03:43:45;;;;;;;2.83;1.70;;;10.00;99.90;;;;;;5053121;28;20199;-81
2021/09/14 03:46:12;;;;;;;14.23;1.93;;;10.00;99.90;;;;;;5053894;28;20227;-80
2021/09/14 03:48:39;;;;;;;6.13;1.97;;;10.00;99.90;;;;;;5055499;28;20215;-80
2021/09/14 03:51:06;;;;;;;8.07;2.73;;;10.00;99.90;;;;;;5054041;28;20243;-80
2021/09/14 03:53:34;;;;;;;18.97;3.13;;;10.00;99.90;;;;;;5055590;28;20203;-81
2021/09/14 03:56:01;;;;;;;18.50;4.13;;;9.80;99.90;;;;;;5054226;28;20227;-80
2021/09/14 03:58:27;;;;;;;15.50;3.43;;;10.10;99.90;;;;;;5054998;28;20210;-81
2021/09/14 04:00:54;;;;;;;13.57;3.63;;;10.00;99.90;;;;;;5048257;28;20302;-80
2021/09/14 04:03:26;;;;;;;35.97;3.97;;;10.20;99.90;;;;;;5043885;28;20654;-80
2021/09/14 04:08:52;;;;;;;10.87;3.37;;;10.10;99.90;;;;;;5030037;28;20640;-81
2021/09/14 04:11:21;;;;;;;14.50;3.43;;;10.10;99.90;;;;;;5046125;28;20206;-80
2021/09/14 04:13:49;;;;;;;14.17;3.40;;;10.10;99.90;;;;;;5053779;28;20207;-81
2021/09/14 04:16:16;;;;;;;30.13;3.30;;;10.30;99.90;;;;;;5051358;28;20305;-81
2021/09/14 04:18:43;;;;;;;16.27;2.90;;;10.20;99.90;;;;;;5050157;28;20309;-80
2021/09/14 04:21:10;;;;;;;23.57;3.37;;;10.20;99.90;;;;;;5050997;28;20211;-80
2021/09/14 04:23:37;;;;;;;3.53;3.03;;;10.20;99.90;;;;;;5053058;28;20506;-80
2021/09/14 04:26:06;;;;;;;4.77;3.10;;;10.30;99.90;;;;;;5050798;28;20378;-81
2021/09/14 04:28:33;;;;;;;6.30;2.63;;;10.20;99.90;;;;;;5055229;28;20215;-81
2021/09/14 04:31:00;;;;;;;3.47;2.73;;;10.20;99.90;;;;;;5054194;28;20218;-80
2021/09/14 04:33:27;;;;;;;5.47;3.27;;;10.10;99.90;;;;;;5055241;28;20653;-80
2021/09/14 04:35:53;;;;;;;3.83;3.37;;;10.20;99.90;;;;;;5055809;28;20310;-80
2021/09/14 04:38:20;;;;;;;4.20;3.23;;;10.30;99.90;;;;;;5056856;28;20298;-81
2021/09/14 04:40:47;;;;;;;5.93;3.70;;;10.20;99.90;;;;;;5053680;28;20298;-81
2021/09/14 04:43:15;;;;;;;5.87;4.07;;;10.20;99.90;;;;;;5053863;28;20233;-82
2021/09/14 04:45:42;;;;;;;7.40;4.40;;;10.30;99.90;;;;;;5054897;28;20376;-80
2021/09/14 04:48:10;;;;;;;5.17;4.30;;;10.30;99.90;;;;;;5054481;28;20207;-81
2021/09/14 04:50:37;;;;;;;6.43;4.10;;;10.20;99.90;;;;;;5053307;28;20591;-81
2021/09/14 04:53:03;;;;;;;3.83;3.30;;;10.20;99.90;;;;;;5055773;28;20294;-81
2021/09/14 04:55:30;;;;;;;4.50;2.60;;;10.30;99.90;;;;;;5054156;28;20223;-81
2021/09/14 04:57:57;;;;;;;6.27;4.33;;;10.30;99.90;;;;;;5054455;28;20702;-81
2021/09/14 05:00:26;;;;;;;8.60;4.37;;;10.20;99.90;;;;;;5054774;28;20199;-83
2021/09/14 05:02:53;;;;;;;8.90;5.77;;;10.30;99.90;;;;;;5052392;28;20199;-80
2021/09/14 05:05:20;;;;;;;10.27;4.83;;;10.30;99.90;;;;;;5047534;28;20214;-81
2021/09/14 05:07:47;;;;;;;7.50;4.30;;;10.30;99.90;;;;;;5044660;28;20290;-81
2021/09/14 05:10:14;;;;;;;8.00;4.53;;;10.40;99.90;;;;;;5054022;28;20252;-81
2021/09/14 05:12:40;;;;;;;6.70;3.90;;;10.40;99.90;;;;;;5053013;28;20213;-81
2021/09/14 05:15:08;;;;;;;6.33;4.30;;;10.40;99.90;;;;;;5053545;28;20665;-81
2021/09/14 05:17:37;;;;;;;5.57;3.63;;;10.40;99.90;;;;;;5052556;28;20389;-81
2021/09/14 05:20:05;;;;;;;4.13;3.50;;;10.40;99.90;;;;;;5052800;28;20205;-81
2021/09/14 05:22:33;;;;;;;4.13;3.60;;;10.30;99.90;;;;;;5053703;28;20253;-81
2021/09/14 05:25:00;;;;;;;6.70;3.40;;;10.40;99.90;;;;;;5053244;28;20684;-82
2021/09/14 05:27:27;;;;;;;7.20;4.03;;;10.40;99.90;;;;;;5053003;28;20603;-81
2021/09/14 05:29:53;;;;;;;6.43;3.90;;;10.30;99.90;;;;;;5052731;28;20264;-81
2021/09/14 05:32:20;;;;;;;10.50;5.27;;;10.50;99.90;;;;;;5052974;28;20210;-81
2021/09/14 05:34:50;;;;;;;21.67;5.43;;;10.60;99.90;;;;;;5053132;28;20221;-81
2021/09/14 05:37:18;;;;;;;14.70;5.90;;;10.60;99.90;;;;;;5053267;28;20233;-81
2021/09/14 05:39:45;;;;;;;14.50;6.97;;;10.60;99.90;;;;;;5053132;28;20209;-81
2021/09/14 05:42:12;;;;;;;21.27;7.13;;;10.80;99.90;;;;;;5052458;28;20300;-81
2021/09/14 05:44:39;;;;;;;19.03;6.90;;;10.70;99.90;;;;;;5052663;28;20336;-81
2021/09/14 05:47:07;;;;;;;11.40;6.90;;;10.90;99.90;;;;;;5051100;28;20301;-81
2021/09/14 05:49:34;;;;;;;18.43;7.10;;;11.00;99.90;;;;;;5052415;28;20633;-81
2021/09/14 05:52:02;;;;;;;20.00;7.27;;;11.10;99.90;;;;;;5052191;28;20207;-81
2021/09/14 05:54:38;;;;;;;24.67;7.17;;;11.20;99.90;;;;;;5051736;28;20217;-81
2021/09/14 05:57:05;;;;;;;34.10;7.03;;;11.10;99.90;;;;;;5058059;28;20241;-81
2021/09/14 05:59:31;;;;;;;29.40;7.87;;;11.20;99.90;;;;;;5041535;28;20283;-81
2021/09/14 06:01:58;;;;;;;25.53;6.97;;;11.40;99.90;;;;;;5054019;28;20210;-81
2021/09/14 06:04:25;;;;;;;22.73;7.00;;;11.50;99.90;;;;;;5046195;28;20217;-81
2021/09/14 06:06:52;;;;;;;26.27;5.97;;;11.50;99.90;;;;;;5034330;28;20227;-81
2021/09/14 06:09:20;;;;;;;21.53;5.97;;;11.60;99.90;;;;;;5033368;28;20645;-81
2021/09/14 06:11:47;;;;;;;21.93;6.20;;;11.70;99.90;;;;;;5033824;28;20208;-81
2021/09/14 06:14:13;;;;;;;23.47;6.40;;;11.80;99.90;;;;;;5034207;28;20568;-81
2021/09/14 06:16:40;;;;;;;23.67;6.30;;;11.80;99.90;;;;;;5042182;28;20320;-81
2021/09/14 06:19:07;;;;;;;17.57;6.10;;;11.80;99.90;;;;;;5052987;28;20213;-81
2021/09/14 06:21:37;;;;;;;15.20;6.70;;;12.00;99.90;;;;;;5053207;28;20209;-80
2021/09/14 06:24:05;;;;;;;16.80;6.33;;;12.00;99.90;;;;;;5053621;28;20658;-81
2021/09/14 06:26:33;;;;;;;16.43;6.90;;;12.20;99.90;;;;;;5053356;28;20228;-81
2021/09/14 06:29:00;;;;;;;13.03;5.00;;;12.20;99.90;;;;;;5052610;28;20203;-81
2021/09/14 06:31:27;;;;;;;11.07;5.53;;;12.00;99.90;;;;;;5071656;28;20804;-81
2021/09/14 06:33:54;;;;;;;10.73;5.40;;;12.20;99.90;;;;;;5073110;28;20206;-81
2021/09/14 06:36:20;;;;;;;8.97;5.30;;;12.20;99.90;;;;;;5073259;28;20757;-81
2021/09/14 06:38:47;;;;;;;12.03;5.50;;;12.30;99.90;;;;;;5073320;28;20208;-81
2021/09/14 06:41:14;;;;;;;12.57;6.30;;;12.40;99.90;;;;;;5073547;28;20589;-81
2021/09/14 06:43:42;;;;;;;13.60;7.50;;;12.50;99.90;;;;;;5073858;28;20206;-81
2021/09/14 06:46:09;;;;;;;11.03;6.97;;;12.30;99.90;;;;;;5073975;28;20847;-81
2021/09/14 06:48:36;;;;;;;10.27;5.87;;;12.50;99.90;;;;;;5073692;28;20202;-81
2021/09/14 06:51:03;;;;;;;12.30;7.00;;;12.60;99.90;;;;;;5073256;28;20236;-80
2021/09/14 06:53:30;;;;;;;14.80;6.80;;;12.50;99.90;;;;;;5062706;28;20195;-81
2021/09/14 06:55:57;;;;;;;11.93;6.33;;;12.50;99.90;;;;;;5053027;28;20247;-81
2021/09/14 06:58:24;;;;;;;15.37;7.23;;;12.50;99.90;;;;;;5053178;28;20205;-81
2021/09/14 07:00:53;;;;;;;12.97;7.57;;;12.60;99.90;;;;;;5052947;28;20203;-81
2021/09/14 07:03:20;;;;;;;12.73;6.77;;;12.60;99.90;;;;;;5052780;28;20205;-81
2021/09/14 07:05:47;;;;;;;14.87;6.70;;;12.60;99.90;;;;;;5055860;28;20777;-81
2021/09/14 07:08:14;;;;;;;11.27;6.73;;;12.70;99.90;;;;;;5057016;28;20203;-81
2021/09/14 07:10:40;;;;;;;13.10;6.83;;;12.80;99.90;;;;;;5056608;28;20595;-81
2021/09/14 07:13:07;;;;;;;12.40;6.80;;;12.90;99.90;;;;;;5056712;28;20213;-81
2021/09/14 07:15:35;;;;;;;12.97;6.83;;;12.90;99.90;;;;;;5056281;28;20590;-81
2021/09/14 07:18:03;;;;;;;11.00;7.23;;;13.00;99.90;;;;;;5056829;28;20203;-81
2021/09/14 07:20:31;;;;;;;12.70;7.60;;;13.00;99.90;;;;;;5056552;28;20206;-81
2021/09/14 07:22:58;;;;;;;12.27;7.30;;;13.20;99.90;;;;;;5056654;28;20225;-81
2021/09/14 07:25:25;;;;;;;12.37;8.57;;;13.30;99.90;;;;;;5057130;28;20241;-81
2021/09/14 07:27:52;;;;;;;12.97;8.23;;;13.40;99.90;;;;;;5056782;28;20207;-81
2021/09/14 07:30:19;;;;;;;11.53;7.97;;;13.60;99.90;;;;;;5056707;28;20240;-81
2021/09/14 07:32:47;;;;;;;14.37;9.13;;;13.60;99.90;;;;;;5057142;28;20210;-81
2021/09/14 07:35:15;;;;;;;12.37;7.77;;;13.60;99.90;;;;;;5056944;28;20206;-82
2021/09/14 07:37:41;;;;;;;12.77;8.37;;;13.60;99.90;;;;;;5053565;28;20622;-81
2021/09/14 07:40:09;;;;;;;12.70;8.13;;;13.80;99.90;;;;;;5064878;28;20187;-81
2021/09/14 07:42:36;;;;;;;13.13;8.63;;;13.80;99.90;;;;;;5073407;28;20191;-81
2021/09/14 07:45:03;;;;;;;14.37;8.63;;;14.00;99.90;;;;;;5056653;28;20574;-81
2021/09/14 07:47:30;;;;;;;13.87;8.33;;;14.00;99.90;;;;;;5063165;28;20203;-82
2021/09/14 07:49:56;;;;;;;14.57;9.30;;;14.10;99.90;;;;;;5070208;28;20304;-82
2021/09/14 07:52:25;;;;;;;14.40;8.87;;;14.10;99.90;;;;;;5064884;28;20210;-82
2021/09/14 07:54:52;;;;;;;14.63;8.77;;;14.30;99.90;;;;;;5054509;28;20206;-82
2021/09/14 07:57:18;;;;;;;16.93;9.43;;;14.40;99.90;;;;;;5056169;28;20223;-82
2021/09/14 07:59:45;;;;;;;16.17;9.40;;;14.60;99.90;;;;;;5052537;28;20237;-82
2021/09/14 08:02:12;;;;;;;16.13;10.07;;;14.60;99.90;;;;;;5054974;28;20238;-82
2021/09/14 08:04:39;;;;;;;17.97;9.10;;;14.80;99.90;;;;;;5124936;22;20271;-79
2021/09/14 08:07:06;;;;;;;15.37;9.40;;;14.70;99.90;;;;;;5017050;28;20220;-79
2021/09/14 08:09:34;;;;;;;15.27;9.77;;;14.90;99.90;;;;;;5014911;28;20301;-80
2021/09/14 08:12:01;;;;;;;15.97;9.23;;;15.00;99.90;;;;;;5014140;28;20227;-79
2021/09/14 08:14:28;;;;;;;19.93;9.80;;;15.10;99.90;;;;;;5007517;28;20215;-79
2021/09/14 08:16:55;;;;;;;18.20;9.70;;;15.10;99.90;;;;;;5003831;28;20685;-78
2021/09/14 08:19:22;;;;;;;16.17;9.53;;;15.10;99.90;;;;;;5013973;28;20236;-80
2021/09/14 08:21:49;;;;;;;15.80;9.03;;;15.00;99.90;;;;;;5012085;28;20201;-80
2021/09/14 08:24:16;;;;;;;14.53;9.67;;;15.40;99.90;;;;;;4992306;28;20576;-79
2021/09/14 08:26:45;;;;;;;12.07;8.50;;;15.40;99.90;;;;;;5001523;28;20235;-79
2021/09/14 08:29:12;;;;;;;15.77;9.70;;;15.50;99.90;;;;;;5006486;28;20209;-79
2021/09/14 08:31:39;;;;;;;12.83;8.90;;;15.70;99.90;;;;;;5007273;28;20223;-79
2021/09/14 08:34:06;;;;;;;18.17;9.40;;;15.80;99.90;;;;;;5005515;28;20204;-79
2021/09/14 08:36:33;;;;;;;17.42;9.57;;;15.70;99.90;;;;;;5006849;28;20255;-79
2021/09/14 08:39:00;;;;;;;16.80;9.15;;;15.90;99.90;;;;;;5005777;28;20204;-79
2021/09/14 08:41:27;;;;;;;11.23;7.75;;;16.10;99.90;;;;;;5005579;28;20290;-79
2021/09/14 08:43:55;;;;;;;13.07;8.90;;;16.20;99.90;;;;;;5007846;28;20252;-79
2021/09/14 08:46:23;;;;;;;13.93;8.30;;;16.30;99.90;;;;;;5002398;28;20224;-79
2021/09/14 08:48:52;;;;;;;13.95;8.18;;;16.30;99.90;;;;;;5006965;28;20212;-79
2021/09/14 08:51:19;;;;;;;14.05;8.90;;;16.40;99.90;;;;;;5012188;28;20252;-78
2021/09/14 08:53:46;;;;;;;12.40;8.55;;;16.70;99.90;;;;;;5012119;28;20208;-79
2021/09/14 08:56:13;;;;;;;14.60;8.30;;;16.70;99.90;;;;;;4996598;28;20307;-80
2021/09/14 08:58:40;;;;;;;14.48;8.65;;;16.90;99.90;;;;;;4987043;28;20255;-79
2021/09/14 09:01:13;;;;;;;12.65;7.40;;;16.90;99.90;;;;;;4996243;28;20204;-79
2021/09/14 09:03:40;;;;;;;12.07;8.63;;;17.10;99.90;;;;;;5002895;28;20689;-79
2021/09/14 09:06:07;;;;;;;12.75;8.52;;;17.40;99.90;;;;;;4998956;28;20278;-79
2021/09/14 09:08:35;;;;;;;12.55;7.93;;;17.80;99.90;;;;;;5008937;28;20208;-79
2021/09/14 09:11:04;;;;;;;11.55;7.68;;;18.30;99.90;;;;;;5011311;28;20316;-79
2021/09/14 09:13:33;;;;;;;10.98;7.82;;;18.50;99.90;;;;;;5003912;28;20251;-80
2021/09/14 09:16:00;;;;;;;11.35;7.47;;;19.20;99.90;;;;;;5003462;28;20648;-79
2021/09/14 09:18:28;;;;;;;9.43;7.25;;;19.10;99.90;;;;;;5004866;28;20688;-79
2021/09/14 09:21:02;;;;;;;10.27;7.25;;;19.30;99.90;;;;;;5003025;28;20200;-80
2021/09/14 09:23:29;;;;;;;10.27;7.85;;;19.40;99.90;;;;;;4983970;28;20399;-80
2021/09/14 09:26:07;;;;;;;10.85;7.63;;;19.50;99.90;;;;;;4988612;28;20594;-80
2021/09/14 09:28:34;;;;;;;9.90;7.75;;;19.90;99.90;;;;;;4989148;28;20219;-79
2021/09/14 09:31:08;;;;;;;9.48;7.93;;;20.10;99.90;;;;;;5006725;28;21222;-80
2021/09/14 09:33:38;;;;;;;8.82;7.57;;;20.60;99.90;;;;;;5006635;28;20295;-80
2021/09/14 09:36:06;;;;;;;9.82;8.00;;;20.90;99.90;;;;;;5000014;28;20216;-80
2021/09/14 09:38:46;;;;;;;10.75;8.25;;;21.10;99.90;;;;;;4985112;28;20209;-79
2021/09/14 09:41:16;;;;;;;11.25;8.20;;;20.70;99.90;;;;;;4990173;28;20211;-79
2021/09/14 09:43:43;;;;;;;11.02;7.88;;;20.60;99.90;;;;;;5006358;28;20212;-80
2021/09/14 09:46:17;;;;;;;9.05;7.60;;;20.90;99.90;;;;;;5005116;28;20880;-80
2021/09/14 09:48:46;;;;;;;10.60;7.97;;;21.20;99.90;;;;;;5001062;28;20650;-78
2021/09/14 09:51:13;;;;;;;9.93;7.45;;;21.20;99.90;;;;;;4998899;28;20241;-78
2021/09/14 09:53:40;;;;;;;11.30;7.95;;;21.60;99.90;;;;;;5002977;28;20201;-78
2021/09/14 09:56:08;;;;;;;11.57;7.25;;;21.40;99.90;;;;;;4987976;28;20228;-77
2021/09/14 09:58:35;;;;;;;12.98;7.93;;;21.40;99.90;;;;;;5001372;28;20204;-78
2021/09/14 10:01:09;;;;;;;11.18;8.02;;;21.40;99.90;;;;;;4985788;28;20259;-78
2021/09/14 10:03:46;;;;;;;12.35;7.45;;;21.50;99.90;;;;;;4987553;28;20950;-78
2021/09/14 10:06:17;;;;;;;11.85;8.68;;;21.50;99.90;;;;;;4988521;28;20702;-78
2021/09/14 10:08:51;;;;;;;11.35;9.02;;;21.60;99.90;;;;;;5003995;28;20206;-77
2021/09/14 10:11:26;;;;;;;11.45;7.90;;;21.50;99.90;;;;;;5008919;28;20314;-77
2021/09/14 10:14:04;;;;;;;13.50;8.20;;;21.90;99.90;;;;;;4984020;28;20259;-78
2021/09/14 10:16:35;;;;;;;11.32;8.35;;;22.20;99.90;;;;;;4993655;28;20274;-78
2021/09/14 10:19:08;;;;;;;11.43;8.55;;;22.00;99.90;;;;;;5005081;28;20267;-77
2021/09/14 10:21:37;;;;;;;10.82;8.27;;;22.20;99.90;;;;;;4995141;28;20583;-77
2021/09/14 10:24:04;;;;;;;10.95;8.18;;;22.20;99.90;;;;;;4985788;28;20209;-78
2021/09/14 10:26:35;;;;;;;12.30;8.13;;;22.50;99.90;;;;;;4985518;28;20221;-78
2021/09/14 10:29:13;;;;;;;8.65;7.72;;;22.40;99.90;;;;;;4984822;28;20740;-77
2021/09/14 10:31:40;;;;;;;10.35;8.27;;;22.30;99.90;;;;;;4993436;28;20902;-78
2021/09/14 10:34:09;;;;;;;11.63;7.97;;;22.40;99.90;;;;;;4999134;28;20239;-78
2021/09/14 10:36:40;;;;;;;11.23;9.27;;;22.40;99.90;;;;;;5004281;28;20218;-78
2021/09/14 10:39:19;;;;;;;10.00;7.93;;;22.40;99.90;;;;;;4985169;28;20263;-78
2021/09/14 10:41:49;;;;;;;13.02;8.30;;;22.50;99.90;;;;;;4984367;28;20211;-78
2021/09/14 10:44:25;;;;;;;8.35;6.60;;;22.60;99.90;;;;;;5004806;28;20211;-78
2021/09/14 10:47:04;;;;;;;10.48;8.13;;;23.50;99.90;;;;;;5003350;28;20587;-78
2021/09/14 10:49:43;;;;;;;8.27;7.25;;;23.20;99.90;;;;;;5004663;28;20637;-78
2021/09/14 10:52:12;;;;;;;10.90;7.43;;;24.00;99.90;;;;;;4996806;28;20236;-78
2021/09/14 10:54:48;;;;;;;10.45;8.10;;;23.80;99.90;;;;;;4986568;28;20215;-78
2021/09/14 10:57:15;;;;;;;9.82;6.90;;;23.50;99.90;;;;;;4985087;28;20217;-78
2021/09/14 10:59:49;;;;;;;9.48;6.75;;;23.50;99.90;;;;;;4985387;28;20940;-78
2021/09/14 11:02:16;;;;;;;11.32;8.07;;;24.30;99.90;;;;;;4986583;28;20243;-78
2021/09/14 11:04:43;;;;;;;11.40;8.68;;;24.50;99.90;;;;;;4992857;28;20220;-78
2021/09/14 11:07:17;;;;;;;10.57;8.75;;;23.50;99.90;;;;;;5006317;28;20216;-78
2021/09/14 11:09:44;;;;;;;9.82;8.45;;;23.20;99.90;;;;;;5006185;28;20925;-78
2021/09/14 11:12:20;;;;;;;14.82;9.52;;;23.30;99.90;;;;;;5004603;28;20231;-78
2021/09/14 11:14:47;;;;;;;11.93;9.48;;;23.40;99.90;;;;;;4999637;28;20221;-79
2021/09/14 11:17:23;;;;;;;13.30;8.93;;;23.50;99.90;;;;;;4986071;28;20232;-78
2021/09/14 11:19:51;;;;;;;14.13;8.60;;;23.90;99.90;;;;;;4986269;28;20212;-79
2021/09/14 11:22:30;;;;;;;15.93;9.55;;;24.50;99.90;;;;;;4985561;28;20303;-78
2021/09/14 11:24:57;;;;;;;11.68;8.43;;;24.00;99.90;;;;;;4990195;28;20200;-79
2021/09/14 11:27:24;;;;;;;11.40;8.38;;;23.80;99.90;;;;;;5002611;28;20311;-78
2021/09/14 11:29:51;;;;;;;8.00;6.88;;;23.70;99.90;;;;;;4985292;28;20668;-78
2021/09/14 11:32:18;;;;;;;12.85;7.32;;;23.60;99.90;;;;;;4986563;28;20213;-78
2021/09/14 11:34:47;;;;;;;8.77;6.95;;;23.80;99.90;;;;;;4985923;28;20664;-78
2021/09/14 11:37:14;;;;;;;10.77;7.95;;;23.70;99.90;;;;;;4996284;28;20598;-78
2021/09/14 11:39:42;;;;;;;9.25;8.05;;;23.60;99.90;;;;;;4990918;28;20946;-79
2021/09/14 11:42:10;;;;;;;13.98;7.43;;;23.90;99.90;;;;;;4991060;28;21259;-78
2021/09/14 11:44:36;;;;;;;9.43;7.82;;;23.90;99.90;;;;;;4986178;28;20628;-77
2021/09/14 11:47:10;;;;;;;11.23;8.82;;;23.90;99.90;;;;;;4986311;28;20311;-78
2021/09/14 11:49:37;;;;;;;9.00;6.47;;;23.70;99.90;;;;;;4985214;28;20223;-79
2021/09/14 11:52:06;;;;;;;11.95;5.63;;;24.10;99.90;;;;;;5002289;28;20767;-78
2021/09/14 11:54:34;;;;;;;6.28;4.90;;;24.40;99.90;;;;;;5009318;28;20212;-78
2021/09/14 11:57:03;;;;;;;7.47;6.13;;;25.30;99.90;;;;;;4996275;28;20888;-78
2021/09/14 11:59:38;;;;;;;8.02;7.15;;;24.70;99.90;;;;;;4989268;28;20208;-78
2021/09/14 12:02:05;;;;;;;8.48;6.97;;;24.20;99.90;;;;;;4994331;28;20287;-78
2021/09/14 12:04:32;;;;;;;15.25;7.07;;;24.20;99.90;;;;;;5015782;28;20215;-78
2021/09/14 12:06:59;;;;;;;8.23;6.07;;;24.50;99.90;;;;;;5004606;28;20226;-79
2021/09/14 12:09:28;;;;;;;6.68;5.70;;;24.60;99.90;;;;;;5002343;28;20204;-79
2021/09/14 12:12:05;;;;;;;8.05;5.43;;;24.80;99.90;;;;;;4996646;28;20427;-79
2021/09/14 12:14:32;;;;;;;8.50;5.32;;;24.30;99.90;;;;;;4994375;28;20235;-78
2021/09/14 12:17:02;;;;;;;5.90;5.40;;;24.50;99.90;;;;;;4994474;28;20231;-79
2021/09/14 12:19:29;;;;;;;8.43;5.60;;;24.00;99.90;;;;;;5000647;28;20211;-79
2021/09/14 12:21:56;;;;;;;7.10;5.38;;;23.90;99.90;;;;;;4991553;28;20201;-78
2021/09/14 12:24:24;;;;;;;7.85;5.70;;;24.10;99.90;;;;;;4993603;28;20205;-78
2021/09/14 12:26:52;;;;;;;9.77;5.78;;;24.20;99.90;;;;;;4995196;28;20243;-78
2021/09/14 12:29:20;;;;;;;7.38;5.70;;;24.50;99.90;;;;;;4993874;28;20213;-78
2021/09/14 12:31:48;;;;;;;9.68;5.55;;;24.50;99.90;;;;;;5000544;28;20311;-78
2021/09/14 12:34:16;;;;;;;7.18;5.50;;;24.50;99.90;;;;;;5007188;28;20287;-78
2021/09/14 12:36:44;;;;;;;5.65;5.15;;;25.10;99.90;;;;;;5006462;28;20699;-78
2021/09/14 12:39:11;;;;;;;7.30;5.38;;;26.20;99.90;;;;;;5007121;28;20582;-78
2021/09/14 12:41:38;;;;;;;6.03;5.43;;;25.30;99.90;;;;;;5006590;28;20200;-78
2021/09/14 12:44:05;;;;;;;8.90;6.95;;;25.50;99.90;;;;;;5000730;28;20205;-78
2021/09/14 12:46:33;;;;;;;6.00;5.40;;;25.50;99.90;;;;;;5007276;28;20220;-79
2021/09/14 12:49:01;;;;;;;7.47;5.20;;;25.20;99.90;;;;;;5000026;28;20209;-78
2021/09/14 12:51:28;;;;;;;7.88;5.68;;;25.10;99.90;;;;;;4996429;28;20215;-79
2021/09/14 12:53:55;;;;;;;5.93;5.25;;;25.90;99.90;;;;;;4996785;28;20205;-79
2021/09/14 12:56:22;;;;;;;6.03;5.43;;;25.60;99.90;;;;;;4986545;28;20221;-79
2021/09/14 12:58:48;;;;;;;5.57;5.07;;;25.40;99.90;;;;;;4992132;28;20587;-78
2021/09/14 13:01:16;;;;;;;5.70;5.20;;;25.40;99.90;;;;;;4992548;28;20296;-79
2021/09/14 13:03:44;;;;;;;6.18;5.55;;;25.30;99.90;;;;;;4995235;28;20193;-78
2021/09/14 13:06:12;;;;;;;16.38;13.48;;;24.80;99.90;;;;;;4995449;28;20609;-78
2021/09/14 13:08:39;;;;;;;6.57;5.88;;;24.60;99.90;;;;;;4994212;28;20282;-78
2021/09/14 13:11:06;;;;;;;6.78;6.10;;;24.60;99.90;;;;;;5007902;28;20299;-78
2021/09/14 13:16:17;;;;;;;7.13;6.30;;;24.90;99.90;;;;;;5005181;28;20242;-79
2021/09/14 13:18:46;;;;;;;7.20;5.95;;;24.70;99.90;;;;;;4999971;28;20223;-78
2021/09/14 13:21:14;;;;;;;6.32;5.70;;;24.80;99.90;;;;;;4996270;28;20567;-78
2021/09/14 13:23:42;;;;;;;7.95;5.60;;;25.00;99.90;;;;;;4996261;28;20196;-78
2021/09/14 13:26:09;;;;;;;6.40;5.85;;;25.10;99.90;;;;;;5010632;28;20255;-79
2021/09/14 13:28:36;;;;;;;7.82;6.10;;;25.80;99.90;;;;;;5004582;28;20570;-78
2021/09/14 13:31:04;;;;;;;6.85;5.53;;;25.30;99.90;;;;;;5006023;28;20291;-79
2021/09/14 13:33:31;;;;;;;6.07;5.38;;;25.30;99.90;;;;;;5008657;28;20222;-78
2021/09/14 13:35:59;;;;;;;6.93;6.22;;;25.50;99.90;;;;;;5011204;28;20221;-80